Time;durP1;ratioP1;P1;durP2;ratioP2;P2;SDS_P1;SDS_P2;PMS_P1;PMS_P2;Temp;Humidity;BMP_temperature;BMP_pressure;BME280_temperature;BME280_humidity;BME280_pressure;Samples;Min_cycle;Max_cycle;Signal;HPM_P1;HPM_P2
2021/07/25 00:00:01;;;;;;;3.30;1.77;;;18.40;99.90;;;;;;5092890;28;20460;-80
2021/07/25 00:02:28;;;;;;;1.40;1.17;;;18.40;99.90;;;;;;5093209;28;20542;-80
2021/07/25 00:04:55;;;;;;;2.67;1.23;;;18.40;99.90;;;;;;5092855;28;20860;-80
2021/07/25 00:07:22;;;;;;;3.13;1.73;;;18.40;99.90;;;;;;5092839;28;20958;-80
2021/07/25 00:09:48;;;;;;;4.80;1.90;;;18.40;99.90;;;;;;5092670;28;20459;-80
2021/07/25 00:12:16;;;;;;;2.13;1.40;;;18.30;99.90;;;;;;5093566;28;20479;-80
2021/07/25 00:14:44;;;;;;;2.70;1.50;;;18.20;99.90;;;;;;5092797;28;20443;-80
2021/07/25 00:17:11;;;;;;;3.40;1.50;;;18.10;99.90;;;;;;5093145;28;20451;-83
2021/07/25 00:19:37;;;;;;;3.27;1.83;;;18.10;99.90;;;;;;5092689;28;20979;-83
2021/07/25 00:22:05;;;;;;;4.43;1.97;;;18.00;99.90;;;;;;5092870;28;20448;-83
2021/07/25 00:24:34;;;;;;;3.30;2.00;;;18.00;99.90;;;;;;5092752;28;20949;-82
2021/07/25 00:27:01;;;;;;;3.83;1.73;;;18.00;99.90;;;;;;5093015;28;20483;-82
2021/07/25 00:29:30;;;;;;;2.13;1.30;;;18.00;99.90;;;;;;5087900;28;22536;-82
2021/07/25 00:31:59;;;;;;;2.30;1.27;;;18.00;99.90;;;;;;5089952;28;20513;-80
2021/07/25 00:34:29;;;;;;;3.43;1.93;;;18.10;99.90;;;;;;5092880;28;20444;-79
2021/07/25 00:36:55;;;;;;;2.60;1.30;;;18.10;99.90;;;;;;5092677;28;20432;-80
2021/07/25 00:39:22;;;;;;;3.43;1.83;;;18.10;99.90;;;;;;5092827;28;20470;-80
2021/07/25 00:41:49;;;;;;;1.47;1.30;;;18.10;99.90;;;;;;5092751;28;20440;-80
2021/07/25 00:44:16;;;;;;;2.60;1.53;;;18.10;99.90;;;;;;5093219;28;20452;-80
2021/07/25 00:46:46;;;;;;;2.27;1.50;;;18.10;99.90;;;;;;5096479;28;20452;-81
2021/07/25 00:49:13;;;;;;;2.60;1.80;;;18.10;99.90;;;;;;5096451;28;20478;-80
2021/07/25 00:51:40;;;;;;;2.93;1.27;;;18.10;99.90;;;;;;5096361;28;20486;-82
2021/07/25 00:54:08;;;;;;;3.20;1.20;;;18.10;99.90;;;;;;5096073;28;20440;-82
2021/07/25 00:56:35;;;;;;;3.70;2.00;;;18.10;99.90;;;;;;5096268;28;20551;-82
2021/07/25 00:59:02;;;;;;;3.20;1.17;;;18.10;99.90;;;;;;5096169;28;20444;-82
2021/07/25 01:01:29;;;;;;;1.80;1.13;;;18.10;99.90;;;;;;5096229;28;20440;-82
2021/07/25 01:04:10;;;;;;;3.33;1.50;;;18.10;99.90;;;;;;5096158;28;20448;-82
2021/07/25 01:06:51;;;;;;;2.10;1.50;;;18.10;99.90;;;;;;5096190;28;20776;-81
2021/07/25 01:09:26;;;;;;;2.23;1.60;;;18.10;99.90;;;;;;5096022;28;20464;-82
2021/07/25 01:11:56;;;;;;;2.13;1.67;;;18.00;99.90;;;;;;5095977;28;20467;-81
2021/07/25 01:14:27;;;;;;;1.30;1.20;;;18.00;99.90;;;;;;5096003;28;20440;-81
2021/07/25 01:17:14;;;;;;;3.13;1.60;;;17.90;99.90;;;;;;5095857;28;20432;-82
2021/07/25 01:19:42;;;;;;;1.10;1.00;;;17.90;99.90;;;;;;5095395;28;20466;-82
2021/07/25 01:22:10;;;;;;;1.40;1.30;;;17.90;99.90;;;;;;5095548;28;20958;-82
2021/07/25 01:24:37;;;;;;;1.23;1.00;;;17.90;99.90;;;;;;5095452;28;20424;-82
2021/07/25 01:27:06;;;;;;;3.17;1.40;;;17.90;99.90;;;;;;5095661;28;20455;-82
2021/07/25 01:29:33;;;;;;;2.43;1.67;;;17.90;99.90;;;;;;5095216;28;20484;-82
2021/07/25 01:32:01;;;;;;;4.13;1.60;;;17.90;99.90;;;;;;5095620;28;20470;-82
2021/07/25 01:34:28;;;;;;;3.33;1.57;;;17.90;99.90;;;;;;5095552;28;20448;-82
2021/07/25 01:36:59;;;;;;;1.43;1.20;;;17.90;99.90;;;;;;5096248;28;20807;-82
2021/07/25 01:39:28;;;;;;;2.77;1.07;;;17.90;99.90;;;;;;5095463;28;20459;-82
2021/07/25 01:41:55;;;;;;;2.83;1.37;;;17.90;99.90;;;;;;5095162;28;20962;-82
2021/07/25 01:44:22;;;;;;;3.80;1.30;;;17.90;99.90;;;;;;5095338;28;20455;-83
2021/07/25 01:46:48;;;;;;;1.63;1.33;;;17.90;99.90;;;;;;5095358;28;20458;-83
2021/07/25 01:49:15;;;;;;;1.37;1.20;;;17.90;99.90;;;;;;5095236;28;20459;-82
2021/07/25 01:51:42;;;;;;;2.10;1.40;;;17.90;99.90;;;;;;5094937;28;20478;-82
2021/07/25 01:54:09;;;;;;;4.67;1.67;;;17.90;99.90;;;;;;5095083;28;20452;-82
2021/07/25 01:56:37;;;;;;;1.60;1.20;;;17.90;99.90;;;;;;5095143;28;20443;-83
2021/07/25 01:59:03;;;;;;;1.33;1.23;;;17.90;99.90;;;;;;5095045;28;20447;-83
2021/07/25 02:01:31;;;;;;;3.10;1.53;;;17.90;99.90;;;;;;5094741;28;20965;-83
2021/07/25 02:03:58;;;;;;;2.57;1.50;;;17.90;99.90;;;;;;5094704;28;20943;-82
2021/07/25 02:06:24;;;;;;;2.30;1.07;;;17.80;99.90;;;;;;5094983;28;20455;-82
2021/07/25 02:08:51;;;;;;;3.30;2.03;;;17.80;99.90;;;;;;5094808;28;20451;-82
2021/07/25 02:11:19;;;;;;;1.60;1.43;;;17.80;99.90;;;;;;5094722;28;20488;-82
2021/07/25 02:13:47;;;;;;;2.00;1.37;;;17.80;99.90;;;;;;5094655;28;20452;-82
2021/07/25 02:16:14;;;;;;;3.70;1.67;;;17.80;99.90;;;;;;5094456;28;20986;-82
2021/07/25 02:18:41;;;;;;;3.70;1.17;;;17.80;99.90;;;;;;5094452;28;20459;-83
2021/07/25 02:21:07;;;;;;;3.07;1.47;;;17.80;99.90;;;;;;5094621;28;20472;-83
2021/07/25 02:23:34;;;;;;;1.77;1.50;;;17.80;99.90;;;;;;5094541;28;20436;-82
2021/07/25 02:26:01;;;;;;;1.00;0.90;;;17.80;99.90;;;;;;5094319;28;20781;-83
2021/07/25 02:28:27;;;;;;;1.17;1.00;;;17.70;99.90;;;;;;5094632;28;20456;-83
2021/07/25 02:30:55;;;;;;;2.20;1.00;;;17.70;99.90;;;;;;5093944;28;20484;-82
2021/07/25 02:33:22;;;;;;;2.00;1.03;;;17.70;99.90;;;;;;5094340;28;20455;-80
2021/07/25 02:35:49;;;;;;;1.03;0.87;;;17.70;99.90;;;;;;5093959;28;20436;-80
2021/07/25 02:38:16;;;;;;;1.70;0.97;;;17.70;99.90;;;;;;5094048;28;20444;-81
2021/07/25 02:40:42;;;;;;;2.10;1.23;;;17.70;99.90;;;;;;5094257;28;20459;-81
2021/07/25 02:43:09;;;;;;;1.40;1.27;;;17.70;99.90;;;;;;5094119;28;20452;-81
2021/07/25 02:45:36;;;;;;;1.57;1.20;;;17.70;99.90;;;;;;5094201;28;20448;-81
2021/07/25 02:48:05;;;;;;;1.60;1.40;;;17.60;99.90;;;;;;5093614;28;20935;-82
2021/07/25 02:50:32;;;;;;;4.10;1.40;;;17.60;99.90;;;;;;5093995;28;20468;-82
2021/07/25 02:52:58;;;;;;;1.27;0.90;;;17.60;99.90;;;;;;5094101;28;20479;-82
2021/07/25 02:55:25;;;;;;;1.00;0.87;;;17.60;99.90;;;;;;5093953;28;20455;-83
2021/07/25 02:57:52;;;;;;;3.77;1.30;;;17.60;99.90;;;;;;5093749;28;20442;-82
2021/07/25 03:00:20;;;;;;;1.53;0.87;;;17.60;99.90;;;;;;5094146;28;20805;-82
2021/07/25 03:02:46;;;;;;;1.63;1.07;;;17.60;99.90;;;;;;5093962;28;20452;-83
2021/07/25 03:05:15;;;;;;;1.77;1.00;;;17.60;99.90;;;;;;5093903;28;20456;-82
2021/07/25 03:07:42;;;;;;;2.47;1.13;;;17.60;99.90;;;;;;5093014;28;20443;-82
2021/07/25 03:10:09;;;;;;;1.37;0.80;;;17.60;99.90;;;;;;5093566;28;20452;-82
2021/07/25 03:12:36;;;;;;;2.73;1.20;;;17.60;99.90;;;;;;5094545;28;20484;-82
2021/07/25 03:15:03;;;;;;;1.80;0.97;;;17.50;99.90;;;;;;5093748;28;20540;-82
2021/07/25 03:17:30;;;;;;;1.40;1.07;;;17.60;99.90;;;;;;5093777;28;20450;-82
2021/07/25 03:19:56;;;;;;;1.67;1.20;;;17.50;99.90;;;;;;5093336;28;20468;-82
2021/07/25 03:22:24;;;;;;;2.60;1.20;;;17.60;99.90;;;;;;5093665;28;20451;-81
2021/07/25 03:24:51;;;;;;;2.20;0.90;;;17.60;99.90;;;;;;5093634;28;20450;-82
2021/07/25 03:27:18;;;;;;;1.17;0.60;;;17.60;99.90;;;;;;5093580;28;20458;-82
2021/07/25 03:29:45;;;;;;;0.77;0.60;;;17.50;99.90;;;;;;5085860;28;20477;-82
2021/07/25 03:32:12;;;;;;;0.97;0.87;;;17.50;99.90;;;;;;5092592;28;20452;-82
2021/07/25 03:34:39;;;;;;;0.80;0.80;;;17.50;99.90;;;;;;5093138;28;20923;-82
2021/07/25 03:37:06;;;;;;;1.33;1.17;;;17.50;99.90;;;;;;5093191;28;20931;-82
2021/07/25 03:39:34;;;;;;;1.83;1.20;;;17.40;99.90;;;;;;5093351;28;20801;-82
2021/07/25 03:42:01;;;;;;;1.70;0.90;;;17.40;99.90;;;;;;5093366;28;20951;-82
2021/07/25 03:44:27;;;;;;;1.73;1.20;;;17.40;99.90;;;;;;5092933;28;20451;-82
2021/07/25 03:46:54;;;;;;;1.70;0.87;;;17.40;99.90;;;;;;5093380;28;20451;-82
2021/07/25 03:49:22;;;;;;;1.07;1.00;;;17.40;99.90;;;;;;5092948;28;20840;-82
2021/07/25 03:51:49;;;;;;;1.23;0.73;;;17.40;99.90;;;;;;5092841;28;20471;-82
2021/07/25 03:54:16;;;;;;;1.70;0.80;;;17.40;99.90;;;;;;5093299;28;20454;-82
2021/07/25 03:56:44;;;;;;;0.70;0.60;;;17.40;99.90;;;;;;5093951;28;20452;-82
2021/07/25 03:59:10;;;;;;;2.03;0.77;;;17.40;99.90;;;;;;5093128;28;20452;-81
2021/07/25 04:01:37;;;;;;;1.20;0.60;;;17.50;99.90;;;;;;5093271;28;20447;-81
2021/07/25 04:04:04;;;;;;;1.33;0.90;;;17.50;99.90;;;;;;5093227;28;20450;-81
2021/07/25 04:06:31;;;;;;;1.80;1.00;;;17.40;99.90;;;;;;5092965;28;20440;-81
2021/07/25 04:08:58;;;;;;;2.80;1.03;;;17.40;99.90;;;;;;5093091;28;20466;-81
2021/07/25 04:11:24;;;;;;;3.50;1.43;;;17.40;99.90;;;;;;5093077;28;20452;-82
2021/07/25 04:13:53;;;;;;;1.27;0.73;;;17.50;99.90;;;;;;5093138;28;20447;-82
2021/07/25 04:16:19;;;;;;;1.03;0.87;;;17.50;99.90;;;;;;5093118;28;20467;-82
2021/07/25 04:18:46;;;;;;;2.20;0.97;;;17.50;99.90;;;;;;5092926;28;20451;-82
2021/07/25 04:21:13;;;;;;;0.70;0.70;;;17.50;99.90;;;;;;5096732;28;20476;-81
2021/07/25 04:23:40;;;;;;;1.70;0.90;;;17.50;99.90;;;;;;5096933;28;20462;-82
2021/07/25 04:26:07;;;;;;;1.23;0.87;;;17.50;99.90;;;;;;5096606;28;20489;-82
2021/07/25 04:28:34;;;;;;;2.30;1.00;;;17.60;99.90;;;;;;5096807;28;20443;-81
2021/07/25 04:31:04;;;;;;;1.73;0.90;;;17.60;99.90;;;;;;5096264;28;20482;-82
2021/07/25 04:33:32;;;;;;;3.73;1.30;;;17.60;99.90;;;;;;5096691;28;20480;-82
2021/07/25 04:35:59;;;;;;;1.00;0.90;;;17.60;99.90;;;;;;5096675;28;20448;-82
2021/07/25 04:38:27;;;;;;;1.33;0.60;;;17.60;99.90;;;;;;5096712;28;20450;-82
2021/07/25 04:41:00;;;;;;;0.83;0.80;;;17.60;99.90;;;;;;5096628;28;20472;-82
2021/07/25 04:43:30;;;;;;;7.50;1.40;;;17.70;99.90;;;;;;5096352;28;20424;-82
2021/07/25 04:46:04;;;;;;;0.97;0.83;;;17.70;99.90;;;;;;5096320;28;20497;-82
2021/07/25 04:48:33;;;;;;;1.27;0.90;;;17.70;99.90;;;;;;5096601;28;20439;-82
2021/07/25 04:51:06;;;;;;;0.90;0.70;;;17.80;99.90;;;;;;5096175;28;20874;-82
2021/07/25 04:53:38;;;;;;;2.00;1.20;;;17.70;99.90;;;;;;5096421;28;20463;-82
2021/07/25 04:56:08;;;;;;;0.90;0.53;;;17.70;99.90;;;;;;5096374;28;20436;-82
2021/07/25 04:58:40;;;;;;;1.13;0.70;;;17.80;99.90;;;;;;5096159;28;20452;-82
2021/07/25 05:01:11;;;;;;;1.20;0.93;;;17.80;99.90;;;;;;5096156;28;20550;-82
2021/07/25 05:03:38;;;;;;;1.30;0.97;;;17.80;99.90;;;;;;5096239;28;20420;-82
2021/07/25 05:06:07;;;;;;;1.10;0.70;;;17.80;99.90;;;;;;5096104;28;20452;-82
2021/07/25 05:08:34;;;;;;;0.87;0.70;;;17.80;99.90;;;;;;5096072;28;20447;-82
2021/07/25 05:11:07;;;;;;;1.00;1.00;;;17.80;99.90;;;;;;5095978;28;20475;-82
2021/07/25 05:13:36;;;;;;;1.03;0.93;;;17.80;99.90;;;;;;5095866;28;20971;-82
2021/07/25 05:16:09;;;;;;;0.63;0.50;;;17.90;99.90;;;;;;5095950;28;20502;-79
2021/07/25 05:18:40;;;;;;;0.50;0.50;;;17.90;99.90;;;;;;5095944;28;20770;-79
2021/07/25 05:21:19;;;;;;;3.17;1.13;;;17.90;99.90;;;;;;5095497;28;20452;-79
2021/07/25 05:23:48;;;;;;;1.00;0.80;;;17.90;99.90;;;;;;5095570;28;20988;-79
2021/07/25 05:26:15;;;;;;;1.60;0.60;;;17.90;99.90;;;;;;5095499;28;20432;-79
2021/07/25 05:28:43;;;;;;;1.17;1.07;;;17.90;99.90;;;;;;5095382;28;20966;-79
2021/07/25 05:31:13;;;;;;;0.93;0.70;;;17.90;99.90;;;;;;5094796;28;20483;-79
2021/07/25 05:33:39;;;;;;;0.73;0.73;;;17.90;99.90;;;;;;5095333;28;20994;-79
2021/07/25 05:36:06;;;;;;;1.73;1.00;;;17.90;99.90;;;;;;5095518;28;20455;-79
2021/07/25 05:38:33;;;;;;;0.87;0.87;;;17.90;99.90;;;;;;5095518;28;20463;-81
2021/07/25 05:41:00;;;;;;;0.63;0.63;;;18.00;99.90;;;;;;5095462;28;20460;-82
2021/07/25 05:43:26;;;;;;;2.10;0.70;;;18.00;99.90;;;;;;5095094;28;20978;-82
2021/07/25 05:45:53;;;;;;;1.90;1.30;;;18.00;99.90;;;;;;5095416;28;20443;-82
2021/07/25 05:48:21;;;;;;;0.70;0.70;;;18.10;99.90;;;;;;5087183;28;20440;-82
2021/07/25 05:50:48;;;;;;;0.83;0.70;;;18.10;99.90;;;;;;5095096;28;20499;-82
2021/07/25 05:53:16;;;;;;;0.80;0.70;;;18.10;99.90;;;;;;5095173;28;20472;-82
2021/07/25 05:55:43;;;;;;;1.27;0.80;;;18.10;99.90;;;;;;5095233;28;20447;-82
2021/07/25 05:58:09;;;;;;;0.87;0.80;;;18.20;99.90;;;;;;5094908;28;20428;-82
2021/07/25 06:00:36;;;;;;;3.10;0.93;;;18.30;99.90;;;;;;5094802;28;20452;-82
2021/07/25 06:03:04;;;;;;;2.47;1.03;;;18.40;99.90;;;;;;5094964;28;20455;-82
2021/07/25 06:05:34;;;;;;;2.20;1.50;;;18.50;99.90;;;;;;5094678;28;20973;-82
2021/07/25 06:08:02;;;;;;;0.90;0.77;;;18.60;99.90;;;;;;5094955;28;20455;-82
2021/07/25 06:10:30;;;;;;;0.80;0.60;;;18.80;99.90;;;;;;5094869;28;20475;-80
2021/07/25 06:12:57;;;;;;;0.80;0.80;;;18.90;99.90;;;;;;5094800;28;20484;-80
2021/07/25 06:15:24;;;;;;;0.87;0.50;;;19.10;99.90;;;;;;5094791;28;20450;-80
2021/07/25 06:17:51;;;;;;;0.83;0.83;;;19.20;99.90;;;;;;5094662;28;20455;-79
2021/07/25 06:20:18;;;;;;;1.17;0.90;;;19.30;99.90;;;;;;5094619;28;20525;-80
2021/07/25 06:22:48;;;;;;;0.87;0.70;;;19.40;99.90;;;;;;5094726;28;20451;-80
2021/07/25 06:25:20;;;;;;;2.50;0.83;;;19.50;99.90;;;;;;5094553;28;20466;-80
2021/07/25 06:27:48;;;;;;;0.83;0.83;;;19.50;99.90;;;;;;5094812;28;20446;-80
2021/07/25 06:30:15;;;;;;;1.20;1.10;;;19.60;99.90;;;;;;5085919;28;20568;-81
2021/07/25 06:32:58;;;;;;;0.63;0.63;;;19.70;99.90;;;;;;5094049;28;20487;-80
2021/07/25 06:35:27;;;;;;;1.13;0.80;;;19.70;99.90;;;;;;5094484;28;20432;-81
2021/07/25 06:37:56;;;;;;;1.70;0.90;;;19.60;99.90;;;;;;5094431;28;20436;-81
2021/07/25 06:40:23;;;;;;;0.77;0.77;;;19.60;99.90;;;;;;5094322;28;20464;-80
2021/07/25 06:42:50;;;;;;;0.67;0.67;;;19.60;99.90;;;;;;5093316;28;20802;-80
2021/07/25 06:45:17;;;;;;;1.33;0.60;;;19.60;99.90;;;;;;5094307;28;20436;-80
2021/07/25 06:47:48;;;;;;;0.83;0.73;;;19.70;99.90;;;;;;5093903;28;20784;-80
2021/07/25 06:50:16;;;;;;;0.60;0.60;;;19.70;99.90;;;;;;5094167;28;20464;-80
2021/07/25 06:52:43;;;;;;;1.10;0.77;;;19.80;99.90;;;;;;5094060;28;20494;-80
2021/07/25 06:55:12;;;;;;;2.03;0.70;;;20.00;99.90;;;;;;5093714;28;20444;-82
2021/07/25 06:57:40;;;;;;;0.87;0.50;;;20.00;99.90;;;;;;5093981;28;20539;-82
2021/07/25 07:00:08;;;;;;;1.63;0.90;;;20.00;99.90;;;;;;5093932;28;20467;-82
2021/07/25 07:02:48;;;;;;;0.70;0.70;;;19.90;99.90;;;;;;5093953;28;20439;-82
2021/07/25 07:05:15;;;;;;;1.13;0.67;;;19.90;99.90;;;;;;5093876;28;20447;-82
2021/07/25 07:07:43;;;;;;;2.30;1.00;;;19.90;99.90;;;;;;5093550;28;20444;-82
2021/07/25 07:10:11;;;;;;;0.87;0.57;;;19.90;99.90;;;;;;5093708;28;20474;-81
2021/07/25 07:12:38;;;;;;;1.00;1.00;;;20.00;99.90;;;;;;5093718;28;20479;-81
2021/07/25 07:15:07;;;;;;;0.60;0.60;;;20.10;99.90;;;;;;5093473;28;20803;-81
2021/07/25 07:17:34;;;;;;;0.90;0.80;;;20.20;99.90;;;;;;5093710;28;20450;-81
2021/07/25 07:20:01;;;;;;;0.70;0.70;;;20.30;99.90;;;;;;5093562;28;20479;-80
2021/07/25 07:22:28;;;;;;;0.67;0.67;;;20.40;99.90;;;;;;5093373;28;20923;-81
2021/07/25 07:24:56;;;;;;;0.70;0.70;;;20.40;99.90;;;;;;5093682;28;20428;-80
2021/07/25 07:27:25;;;;;;;1.10;1.00;;;20.30;99.90;;;;;;5093588;28;20438;-81
2021/07/25 07:29:53;;;;;;;1.00;0.90;;;20.30;99.90;;;;;;5093415;28;20468;-80
2021/07/25 07:32:20;;;;;;;0.80;0.80;;;20.20;99.90;;;;;;5093082;28;20965;-81
2021/07/25 07:34:46;;;;;;;0.60;0.60;;;20.20;99.90;;;;;;5093221;28;20412;-81
2021/07/25 07:37:13;;;;;;;1.63;1.10;;;20.10;99.90;;;;;;5093525;28;20439;-81
2021/07/25 07:39:41;;;;;;;0.93;0.83;;;20.10;99.90;;;;;;5093399;28;20471;-80
2021/07/25 07:42:10;;;;;;;0.70;0.70;;;20.10;99.90;;;;;;5093513;28;20428;-81
2021/07/25 07:44:41;;;;;;;1.10;1.00;;;20.00;99.90;;;;;;5093315;28;20776;-81
2021/07/25 07:47:23;;;;;;;1.57;0.90;;;20.00;99.90;;;;;;5093365;28;20431;-81
2021/07/25 07:49:59;;;;;;;0.90;0.90;;;20.00;99.90;;;;;;5093071;28;20474;-81
2021/07/25 07:52:35;;;;;;;0.63;0.50;;;20.10;99.90;;;;;;5092993;28;20894;-81
2021/07/25 07:55:02;;;;;;;1.03;0.80;;;20.30;99.90;;;;;;5096917;28;20427;-81
2021/07/25 07:57:47;;;;;;;;;;;;;;;;;;;;;
2021/07/25 08:00:22;;;;;;;1.90;0.90;;;20.70;99.90;;;;;;5091082;28;20481;-82
2021/07/25 08:02:54;;;;;;;0.80;0.70;;;20.80;99.90;;;;;;5096865;28;20485;-82
2021/07/25 08:05:36;;;;;;;0.70;0.70;;;20.90;99.90;;;;;;5097272;28;20514;-82
2021/07/25 08:08:14;;;;;;;0.73;0.73;;;20.80;99.90;;;;;;5097033;28;20428;-82
2021/07/25 08:10:44;;;;;;;0.73;0.57;;;20.80;99.90;;;;;;5097104;28;20517;-81
2021/07/25 08:22:37;;;;;;;0.70;0.57;;;20.50;99.90;;;;;;5096455;28;20462;-81
2021/07/25 08:25:21;;;;;;;1.40;1.10;;;20.50;99.90;;;;;;5096953;28;20435;-81
2021/07/25 08:28:07;;;;;;;1.20;1.10;;;20.50;99.90;;;;;;5096958;28;20411;-81
2021/07/25 08:30:34;;;;;;;1.07;0.97;;;20.40;99.90;;;;;;5096420;28;20471;-81
2021/07/25 08:33:15;;;;;;;0.83;0.80;;;20.30;99.90;;;;;;5096465;28;20479;-81
2021/07/25 08:38:34;;;;;;;0.93;0.83;;;20.20;99.90;;;;;;5094999;28;20455;-81
2021/07/25 08:41:17;;;;;;;2.63;0.70;;;20.20;99.90;;;;;;5096561;28;20455;-81
2021/07/25 08:43:54;;;;;;;1.17;0.83;;;20.20;99.90;;;;;;5096646;28;20423;-80
2021/07/25 08:57:02;;;;;;;0.70;0.70;;;20.10;99.90;;;;;;4955524;29;20567;-81
2021/07/25 09:11:59;;;;;;;1.47;0.80;;;20.30;99.90;;;;;;4955540;29;20441;-82
2021/07/25 09:15:30;;;;;;;1.20;0.87;;;20.40;99.90;;;;;;4955508;29;20905;-82
2021/07/25 09:18:05;;;;;;;1.50;1.37;;;20.50;99.90;;;;;;4973114;28;20849;-82
2021/07/25 09:24:27;;;;;;;0.80;0.80;;;20.50;99.90;;;;;;5033607;28;20437;-83
2021/07/25 09:27:03;;;;;;;1.33;1.00;;;20.40;99.90;;;;;;5035517;28;20449;-81
2021/07/25 09:29:43;;;;;;;1.37;0.73;;;20.40;99.90;;;;;;5034320;28;20492;-81
2021/07/25 09:32:13;;;;;;;1.23;0.87;;;20.30;99.90;;;;;;5035345;28;20487;-82
2021/07/25 09:34:45;;;;;;;1.63;0.50;;;20.30;99.90;;;;;;5035107;28;20474;-82
2021/07/25 09:41:43;;;;;;;2.33;1.20;;;20.40;99.90;;;;;;4908376;29;20455;-83
2021/07/25 09:44:13;;;;;;;1.30;1.20;;;20.40;99.90;;;;;;4934771;29;20447;-83
2021/07/25 09:50:27;;;;;;;1.70;0.80;;;20.20;99.90;;;;;;4981752;28;21049;-82
2021/07/25 09:52:59;;;;;;;1.30;1.13;;;20.10;99.90;;;;;;5034783;28;20977;-82
2021/07/25 09:55:30;;;;;;;0.80;0.80;;;19.90;99.90;;;;;;5035090;28;20435;-82
2021/07/25 09:57:58;;;;;;;1.27;1.03;;;19.70;99.90;;;;;;5035088;28;20457;-82
2021/07/25 10:00:38;;;;;;;1.43;1.07;;;19.60;99.90;;;;;;5034688;28;20486;-82
2021/07/25 10:03:23;;;;;;;1.37;0.87;;;19.50;99.90;;;;;;5034936;28;20430;-82
2021/07/25 10:05:50;;;;;;;1.67;0.90;;;19.40;99.90;;;;;;5034625;28;20485;-82
2021/07/25 10:08:18;;;;;;;1.20;0.80;;;19.30;99.90;;;;;;5034846;28;20438;-82
2021/07/25 10:10:46;;;;;;;1.87;1.10;;;19.20;99.90;;;;;;5034488;28;20475;-82
2021/07/25 10:13:15;;;;;;;1.83;1.07;;;19.10;99.90;;;;;;5034692;28;20449;-82
2021/07/25 10:15:50;;;;;;;1.63;0.93;;;19.10;99.90;;;;;;5034726;28;20465;-80
2021/07/25 10:18:17;;;;;;;3.37;1.80;;;19.10;99.90;;;;;;5033353;28;20924;-80
2021/07/25 10:20:45;;;;;;;3.93;1.50;;;19.10;99.90;;;;;;5034434;28;20477;-78
2021/07/25 10:23:15;;;;;;;1.20;0.93;;;19.10;99.90;;;;;;5034419;28;20430;-80
2021/07/25 10:25:55;;;;;;;1.60;1.30;;;19.10;99.90;;;;;;5034051;28;20436;-82
2021/07/25 10:28:25;;;;;;;0.93;0.90;;;19.20;99.90;;;;;;5034262;28;20501;-83
2021/07/25 10:31:06;;;;;;;2.03;1.30;;;19.20;99.90;;;;;;5033920;28;20871;-82
2021/07/25 10:33:36;;;;;;;1.80;1.53;;;19.20;99.90;;;;;;5034519;28;20815;-82
2021/07/25 10:36:13;;;;;;;1.53;1.43;;;19.20;99.90;;;;;;5033862;28;20486;-83
2021/07/25 10:38:45;;;;;;;1.03;0.80;;;19.20;99.90;;;;;;5034445;28;20857;-81
2021/07/25 10:41:27;;;;;;;2.50;1.07;;;19.20;99.90;;;;;;5034616;28;20889;-81
2021/07/25 10:43:54;;;;;;;1.77;1.10;;;19.30;99.90;;;;;;5033687;28;20439;-81
2021/07/25 10:46:24;;;;;;;3.00;1.30;;;19.30;99.90;;;;;;5033687;28;20896;-81
2021/07/25 10:49:13;;;;;;;0.97;0.70;;;19.30;99.90;;;;;;5033831;28;20525;-80
2021/07/25 10:51:57;;;;;;;0.80;0.70;;;19.20;99.90;;;;;;5033804;28;20498;-80
2021/07/25 10:54:34;;;;;;;1.27;0.80;;;19.20;99.90;;;;;;5033767;28;20457;-79
2021/07/25 10:57:02;;;;;;;1.73;1.00;;;19.20;99.90;;;;;;5033683;28;20434;-79
2021/07/25 10:59:50;;;;;;;2.00;1.50;;;19.10;99.90;;;;;;5033574;28;20962;-79
2021/07/25 11:02:55;;;;;;;1.40;1.30;;;19.10;99.90;;;;;;5033518;28;20478;-81
2021/07/25 11:05:25;;;;;;;1.90;1.80;;;19.10;99.90;;;;;;5013409;28;20497;-80
2021/07/25 11:07:59;;;;;;;1.40;1.00;;;19.10;99.90;;;;;;5218891;22;20475;-81
2021/07/25 11:10:34;;;;;;;2.50;1.20;;;19.10;99.90;;;;;;5053521;28;20556;-83
2021/07/25 11:13:21;;;;;;;1.97;1.57;;;19.10;99.90;;;;;;5053722;28;20432;-79
2021/07/25 11:15:49;;;;;;;1.30;1.00;;;19.10;99.90;;;;;;5053587;28;20429;-79
2021/07/25 11:18:29;;;;;;;1.73;1.60;;;19.10;99.90;;;;;;5053518;28;20434;-79
2021/07/25 11:21:00;;;;;;;2.73;1.70;;;19.10;99.90;;;;;;5053469;28;20469;-79
2021/07/25 11:23:40;;;;;;;1.43;1.00;;;18.90;99.90;;;;;;5053198;28;20470;-79
2021/07/25 11:26:35;;;;;;;1.10;1.00;;;18.90;99.90;;;;;;5053433;28;20513;-79
2021/07/25 11:29:07;;;;;;;3.20;1.50;;;18.80;99.90;;;;;;4999138;28;20453;-80
2021/07/25 11:31:39;;;;;;;2.33;2.13;;;18.80;99.90;;;;;;5053393;28;20422;-80
2021/07/25 11:34:11;;;;;;;1.67;1.20;;;18.80;99.90;;;;;;5053333;28;20478;-80
2021/07/25 11:36:39;;;;;;;1.07;1.07;;;18.70;99.90;;;;;;5053276;28;20434;-80
2021/07/25 11:39:08;;;;;;;2.43;1.40;;;18.60;99.90;;;;;;5053154;28;20528;-79
2021/07/25 11:41:37;;;;;;;1.63;1.33;;;18.60;99.90;;;;;;5053255;28;20437;-79
2021/07/25 11:44:05;;;;;;;1.63;0.93;;;18.60;99.90;;;;;;5053185;28;20429;-79
2021/07/25 11:46:35;;;;;;;2.73;1.67;;;18.60;99.90;;;;;;5052925;28;20790;-79
2021/07/25 11:49:17;;;;;;;1.97;0.93;;;18.60;99.90;;;;;;5052859;28;20924;-81
2021/07/25 11:51:51;;;;;;;1.23;1.13;;;18.50;99.90;;;;;;5053279;28;20484;-82
2021/07/25 11:54:22;;;;;;;1.13;0.90;;;18.50;99.90;;;;;;5053423;28;20474;-81
2021/07/25 11:57:00;;;;;;;1.30;0.97;;;18.40;99.90;;;;;;5053107;28;20430;-81
2021/07/25 11:59:28;;;;;;;1.37;0.87;;;18.30;99.90;;;;;;5053020;28;20480;-82
2021/07/25 12:01:55;;;;;;;1.13;0.93;;;18.30;99.90;;;;;;5052830;28;20463;-81
2021/07/25 12:04:24;;;;;;;0.80;0.77;;;18.20;99.90;;;;;;5053210;28;20445;-81
2021/07/25 12:07:00;;;;;;;1.17;0.60;;;18.10;99.90;;;;;;5053646;28;20772;-81
2021/07/25 12:09:27;;;;;;;2.10;1.13;;;18.10;99.90;;;;;;5052591;28;20490;-81
2021/07/25 12:12:05;;;;;;;2.03;0.87;;;18.10;99.90;;;;;;5052780;28;20874;-81
2021/07/25 12:14:33;;;;;;;1.10;0.97;;;18.00;99.90;;;;;;5052726;28;21028;-81
2021/07/25 12:17:00;;;;;;;1.23;1.13;;;18.10;99.90;;;;;;5052951;28;20445;-81
2021/07/25 12:19:27;;;;;;;1.50;0.90;;;18.10;99.90;;;;;;5052562;28;20466;-81
2021/07/25 12:22:15;;;;;;;1.43;0.83;;;18.10;99.90;;;;;;5052610;28;20936;-82
2021/07/25 12:24:44;;;;;;;1.17;1.07;;;18.10;99.90;;;;;;5052893;28;20430;-82
2021/07/25 12:27:31;;;;;;;0.90;0.77;;;18.20;99.90;;;;;;5052664;28;20402;-82
2021/07/25 12:30:17;;;;;;;0.70;0.70;;;18.30;99.90;;;;;;5052680;28;20457;-82
2021/07/25 12:32:45;;;;;;;0.40;0.40;;;18.30;99.90;;;;;;5052533;28;20441;-83
2021/07/25 12:35:21;;;;;;;0.50;0.50;;;18.40;99.90;;;;;;5052805;28;20474;-82
2021/07/25 12:37:51;;;;;;;0.50;0.50;;;18.50;99.90;;;;;;5052483;28;20992;-82
2021/07/25 12:40:19;;;;;;;1.83;1.00;;;18.60;99.90;;;;;;5053370;28;20560;-82
2021/07/25 12:42:51;;;;;;;0.80;0.80;;;18.80;99.90;;;;;;5056461;28;20438;-82
2021/07/25 12:45:38;;;;;;;1.20;0.80;;;19.00;99.90;;;;;;5056653;28;20441;-82
2021/07/25 12:48:36;;;;;;;1.50;0.70;;;19.00;99.90;;;;;;5056914;28;20437;-84
2021/07/25 12:51:30;;;;;;;1.10;1.10;;;19.10;99.90;;;;;;5056512;28;20798;-83
2021/07/25 12:54:00;;;;;;;0.83;0.73;;;19.20;99.90;;;;;;5056253;28;20438;-83
2021/07/25 12:56:28;;;;;;;2.07;1.30;;;19.40;99.90;;;;;;5056668;28;20426;-83
2021/07/25 12:58:58;;;;;;;1.10;0.80;;;19.50;99.90;;;;;;5056206;28;20430;-82
2021/07/25 13:04:25;;;;;;;1.30;0.83;;;19.60;99.90;;;;;;5056080;28;20417;-84
2021/07/25 13:06:52;;;;;;;0.83;0.70;;;19.70;99.90;;;;;;5055884;28;20430;-84
2021/07/25 13:09:21;;;;;;;1.13;0.80;;;19.70;99.90;;;;;;5055682;28;20464;-83
2021/07/25 13:11:49;;;;;;;1.80;1.10;;;19.80;99.90;;;;;;5056053;28;20497;-84
2021/07/25 13:14:19;;;;;;;12.00;0.87;;;19.70;99.90;;;;;;5055584;28;20477;-82
2021/07/25 13:16:48;;;;;;;1.23;1.03;;;19.80;99.90;;;;;;5055906;28;20536;-83
2021/07/25 13:19:15;;;;;;;1.83;0.90;;;19.80;99.90;;;;;;5055846;28;20434;-83
2021/07/25 13:21:42;;;;;;;1.30;0.80;;;19.70;99.90;;;;;;5056118;28;20441;-82
2021/07/25 13:24:12;;;;;;;0.83;0.83;;;19.80;99.90;;;;;;5058032;28;20414;-83
2021/07/25 13:26:40;;;;;;;0.80;0.63;;;19.80;99.90;;;;;;5057683;28;20430;-84
2021/07/25 13:29:07;;;;;;;1.37;0.70;;;19.90;99.90;;;;;;5056690;28;20430;-82
2021/07/25 13:31:34;;;;;;;1.07;1.00;;;19.90;99.90;;;;;;5055590;28;20437;-79
2021/07/25 13:34:01;;;;;;;1.43;1.30;;;19.90;99.90;;;;;;5055211;28;20913;-80
2021/07/25 13:36:28;;;;;;;1.07;0.73;;;20.00;99.90;;;;;;5056493;28;20465;-84
2021/07/25 13:38:55;;;;;;;1.03;0.57;;;20.00;99.90;;;;;;5056641;28;20441;-83
2021/07/25 13:41:22;;;;;;;2.00;1.23;;;20.00;99.90;;;;;;5057111;28;20838;-83
2021/07/25 13:43:51;;;;;;;2.67;1.03;;;20.00;99.90;;;;;;5056774;28;20430;-83
2021/07/25 13:46:22;;;;;;;2.10;1.20;;;20.00;99.90;;;;;;5055801;28;20465;-80
2021/07/25 13:48:49;;;;;;;1.07;0.97;;;19.90;99.90;;;;;;5055238;28;20430;-80
2021/07/25 13:51:19;;;;;;;0.90;0.73;;;19.90;99.90;;;;;;5054662;28;20454;-80
2021/07/25 13:53:47;;;;;;;1.83;1.10;;;19.90;99.90;;;;;;5055211;28;20528;-80